sensor_id;sensor_type;location;lat;lon;timestamp;pressure;altitude;pressure_sealevel;temperature;humidity
55044;BME280;54902;50.420;18.854;2023-03-01T00:00:01;102645.29;;;-2.72;68.52
55044;BME280;54902;50.420;18.854;2023-03-01T00:00:33;102644.40;;;-2.71;68.51
55044;BME280;54902;50.420;18.854;2023-03-01T00:01:07;102642.60;;;-2.72;68.52
55044;BME280;54902;50.420;18.854;2023-03-01T00:01:39;102642.60;;;-2.73;68.51
55044;BME280;54902;50.420;18.854;2023-03-01T00:02:09;102644.41;;;-2.72;68.51
55044;BME280;54902;50.420;18.854;2023-03-01T00:02:40;102636.39;;;-2.74;68.51
55044;BME280;54902;50.420;18.854;2023-03-01T00:03:12;102635.48;;;-2.74;68.52
55044;BME280;54902;50.420;18.854;2023-03-01T00:03:43;102633.72;;;-2.74;68.52
55044;BME280;54902;50.420;18.854;2023-03-01T00:04:14;102630.13;;;-2.74;68.52
55044;BME280;54902;50.420;18.854;2023-03-01T00:04:46;102639.94;;;-2.75;68.53
55044;BME280;54902;50.420;18.854;2023-03-01T00:05:17;102637.27;;;-2.75;68.54
55044;BME280;54902;50.420;18.854;2023-03-01T00:05:48;102635.48;;;-2.74;68.53
55044;BME280;54902;50.420;18.854;2023-03-01T00:06:19;102630.14;;;-2.76;68.55
55044;BME280;54902;50.420;18.854;2023-03-01T00:06:51;102632.80;;;-2.76;68.57
55044;BME280;54902;50.420;18.854;2023-03-01T00:07:21;102628.38;;;-2.75;68.55
55044;BME280;54902;50.420;18.854;2023-03-01T00:07:53;102631.92;;;-2.76;68.55
55044;BME280;54902;50.420;18.854;2023-03-01T00:08:25;102632.80;;;-2.76;68.59
55044;BME280;54902;50.420;18.854;2023-03-01T00:08:56;102626.59;;;-2.76;68.54
55044;BME280;54902;50.420;18.854;2023-03-01T00:09:27;102620.36;;;-2.77;68.53
55044;BME280;54902;50.420;18.854;2023-03-01T00:09:58;102631.05;;;-2.77;68.53
55044;BME280;54902;50.420;18.854;2023-03-01T00:10:29;102632.80;;;-2.76;68.55
55044;BME280;54902;50.420;18.854;2023-03-01T00:11:06;102631.05;;;-2.77;68.54
55044;BME280;54902;50.420;18.854;2023-03-01T00:11:38;102624.79;;;-2.77;68.55
55044;BME280;54902;50.420;18.854;2023-03-01T00:12:09;102629.26;;;-2.78;68.56
55044;BME280;54902;50.420;18.854;2023-03-01T00:12:41;102626.59;;;-2.78;68.54
55044;BME280;54902;50.420;18.854;2023-03-01T00:13:12;102633.70;;;-2.78;68.55
55044;BME280;54902;50.420;18.854;2023-03-01T00:13:44;102630.15;;;-2.79;68.55
55044;BME280;54902;50.420;18.854;2023-03-01T00:14:15;102632.83;;;-2.79;68.55
55044;BME280;54902;50.420;18.854;2023-03-01T00:14:49;102632.83;;;-2.79;68.56
55044;BME280;54902;50.420;18.854;2023-03-01T00:15:20;102632.83;;;-2.79;68.54
55044;BME280;54902;50.420;18.854;2023-03-01T00:15:51;102639.04;;;-2.78;68.54
55044;BME280;54902;50.420;18.854;2023-03-01T00:16:28;102631.03;;;-2.80;68.56
55044;BME280;54902;50.420;18.854;2023-03-01T00:16:59;102639.93;;;-2.81;68.55
55044;BME280;54902;50.420;18.854;2023-03-01T00:17:30;102631.04;;;-2.81;68.56
55044;BME280;54902;50.420;18.854;2023-03-01T00:18:01;102628.36;;;-2.81;68.56
55044;BME280;54902;50.420;18.854;2023-03-01T00:18:32;102639.06;;;-2.81;68.57
55044;BME280;54902;50.420;18.854;2023-03-01T00:19:04;102638.19;;;-2.82;68.59
55044;BME280;54902;50.420;18.854;2023-03-01T00:19:35;102637.27;;;-2.82;68.58
55044;BME280;54902;50.420;18.854;2023-03-01T00:20:07;102636.39;;;-2.83;68.62
55044;BME280;54902;50.420;18.854;2023-03-01T00:20:41;102634.59;;;-2.84;68.64
55044;BME280;54902;50.420;18.854;2023-03-01T00:21:12;102642.62;;;-2.84;68.62
55044;BME280;54902;50.420;18.854;2023-03-01T00:21:43;102635.48;;;-2.85;68.62
55044;BME280;54902;50.420;18.854;2023-03-01T00:22:14;102627.45;;;-2.85;68.38
55044;BME280;54902;50.420;18.854;2023-03-01T00:22:45;102633.73;;;-2.86;68.60
55044;BME280;54902;50.420;18.854;2023-03-01T00:23:15;102633.73;;;-2.86;68.61
55044;BME280;54902;50.420;18.854;2023-03-01T00:23:46;102633.73;;;-2.86;68.60
55044;BME280;54902;50.420;18.854;2023-03-01T00:24:19;102643.49;;;-2.85;68.59
55044;BME280;54902;50.420;18.854;2023-03-01T00:24:50;102642.63;;;-2.87;68.60
55044;BME280;54902;50.420;18.854;2023-03-01T00:25:20;102632.81;;;-2.88;68.60
55044;BME280;54902;50.420;18.854;2023-03-01T00:25:52;102631.94;;;-2.87;68.59
55044;BME280;54902;50.420;18.854;2023-03-01T00:26:24;102638.17;;;-2.88;68.59
55044;BME280;54902;50.420;18.854;2023-03-01T00:26:55;102631.95;;;-2.88;68.59
55044;BME280;54902;50.420;18.854;2023-03-01T00:27:27;102636.38;;;-2.89;68.59
55044;BME280;54902;50.420;18.854;2023-03-01T00:27:58;102634.62;;;-2.89;68.57
55044;BME280;54902;50.420;18.854;2023-03-01T00:28:29;102637.29;;;-2.89;68.58
55044;BME280;54902;50.420;18.854;2023-03-01T00:29:00;102626.60;;;-2.91;68.59
55044;BME280;54902;50.420;18.854;2023-03-01T00:29:31;102633.72;;;-2.91;68.60
55044;BME280;54902;50.420;18.854;2023-03-01T00:30:02;102639.06;;;-2.91;68.59
55044;BME280;54902;50.420;18.854;2023-03-01T00:30:34;102636.38;;;-2.91;68.61
55044;BME280;54902;50.420;18.854;2023-03-01T00:31:07;102635.51;;;-2.93;68.60
55044;BME280;54902;50.420;18.854;2023-03-01T00:31:39;102632.84;;;-2.93;68.61
55044;BME280;54902;50.420;18.854;2023-03-01T00:32:09;102641.73;;;-2.94;68.62
55044;BME280;54902;50.420;18.854;2023-03-01T00:32:40;102631.04;;;-2.94;68.62
55044;BME280;54902;50.420;18.854;2023-03-01T00:33:11;102630.14;;;-2.95;68.61
55044;BME280;54902;50.420;18.854;2023-03-01T00:33:43;102633.73;;;-2.96;68.62
55044;BME280;54902;50.420;18.854;2023-03-01T00:34:14;102630.14;;;-2.96;68.60
55044;BME280;54902;50.420;18.854;2023-03-01T00:34:45;102630.14;;;-2.96;68.60
55044;BME280;54902;50.420;18.854;2023-03-01T00:35:27;102630.14;;;-2.98;68.59
55044;BME280;54902;50.420;18.854;2023-03-01T00:35:59;102629.26;;;-2.98;68.60
55044;BME280;54902;50.420;18.854;2023-03-01T00:36:32;102634.61;;;-2.97;68.59
55044;BME280;54902;50.420;18.854;2023-03-01T00:37:04;102624.79;;;-2.98;68.61
55044;BME280;54902;50.420;18.854;2023-03-01T00:37:35;102623.92;;;-2.98;68.61
55044;BME280;54902;50.420;18.854;2023-03-01T00:38:06;102622.13;;;-2.99;68.61
55044;BME280;54902;50.420;18.854;2023-03-01T00:38:39;102623.92;;;-3.00;68.62
55044;BME280;54902;50.420;18.854;2023-03-01T00:39:13;102623.92;;;-2.98;68.63
55044;BME280;54902;50.420;18.854;2023-03-01T00:39:45;102623.92;;;-3.00;68.62
55044;BME280;54902;50.420;18.854;2023-03-01T00:40:16;102620.35;;;-3.00;68.63
55044;BME280;54902;50.420;18.854;2023-03-01T00:40:46;102623.94;;;-3.01;68.61
55044;BME280;54902;50.420;18.854;2023-03-01T00:41:19;102629.28;;;-3.01;68.62
55044;BME280;54902;50.420;18.854;2023-03-01T00:41:50;102623.94;;;-3.01;68.63
55044;BME280;54902;50.420;18.854;2023-03-01T00:42:21;102629.28;;;-3.01;68.63
55044;BME280;54902;50.420;18.854;2023-03-01T00:42:53;102623.01;;;-3.00;68.64
55044;BME280;54902;50.420;18.854;2023-03-01T00:43:24;102626.60;;;-3.01;68.63
55044;BME280;54902;50.420;18.854;2023-03-01T00:43:56;102633.70;;;-3.02;68.62
55044;BME280;54902;50.420;18.854;2023-03-01T00:44:27;102631.92;;;-3.03;68.62
55044;BME280;54902;50.420;18.854;2023-03-01T00:44:58;102628.36;;;-3.03;68.63
55044;BME280;54902;50.420;18.854;2023-03-01T00:45:29;102625.70;;;-3.03;68.63
55044;BME280;54902;50.420;18.854;2023-03-01T00:46:03;102625.70;;;-3.03;68.64
55044;BME280;54902;50.420;18.854;2023-03-01T00:46:34;102631.04;;;-3.03;68.64
55044;BME280;54902;50.420;18.854;2023-03-01T00:47:05;102631.04;;;-3.03;68.66
55044;BME280;54902;50.420;18.854;2023-03-01T00:47:36;102634.59;;;-3.04;68.65
55044;BME280;54902;50.420;18.854;2023-03-01T00:48:07;102622.12;;;-3.05;68.66
55044;BME280;54902;50.420;18.854;2023-03-01T00:48:38;102632.80;;;-3.05;68.67
55044;BME280;54902;50.420;18.854;2023-03-01T00:49:09;102623.02;;;-3.05;68.67
55044;BME280;54902;50.420;18.854;2023-03-01T00:49:40;102627.45;;;-3.07;68.67
55044;BME280;54902;50.420;18.854;2023-03-01T00:50:12;102626.59;;;-3.07;68.68
55044;BME280;54902;50.420;18.854;2023-03-01T00:50:42;102629.26;;;-3.07;68.67
55044;BME280;54902;50.420;18.854;2023-03-01T00:51:19;102622.12;;;-3.08;68.66
55044;BME280;54902;50.420;18.854;2023-03-01T00:51:50;102630.14;;;-3.08;68.66
55044;BME280;54902;50.420;18.854;2023-03-01T00:52:21;102626.59;;;-3.09;68.67
55044;BME280;54902;50.420;18.854;2023-03-01T00:52:54;102626.59;;;-3.09;68.68
55044;BME280;54902;50.420;18.854;2023-03-01T00:53:25;102623.01;;;-3.09;68.67
55044;BME280;54902;50.420;18.854;2023-03-01T00:53:59;102623.01;;;-3.09;68.68
55044;BME280;54902;50.420;18.854;2023-03-01T00:54:30;102622.12;;;-3.08;68.69
55044;BME280;54902;50.420;18.854;2023-03-01T00:55:01;102622.12;;;-3.08;68.70
55044;BME280;54902;50.420;18.854;2023-03-01T00:55:32;102620.33;;;-3.09;68.72
55044;BME280;54902;50.420;18.854;2023-03-01T00:56:05;102623.92;;;-3.10;68.75
55044;BME280;54902;50.420;18.854;2023-03-01T00:56:36;102623.01;;;-3.09;68.75
55044;BME280;54902;50.420;18.854;2023-03-01T00:57:07;102620.33;;;-3.09;68.75
55044;BME280;54902;50.420;18.854;2023-03-01T00:57:38;102621.25;;;-3.09;68.76
55044;BME280;54902;50.420;18.854;2023-03-01T00:58:09;102619.46;;;-3.10;68.76
55044;BME280;54902;50.420;18.854;2023-03-01T00:58:40;102626.59;;;-3.09;68.76
55044;BME280;54902;50.420;18.854;2023-03-01T00:59:12;102614.11;;;-3.10;68.74
55044;BME280;54902;50.420;18.854;2023-03-01T00:59:43;102619.46;;;-3.08;68.76
55044;BME280;54902;50.420;18.854;2023-03-01T01:00:14;102623.03;;;-3.08;68.75
55044;BME280;54902;50.420;18.854;2023-03-01T01:00:45;102620.33;;;-3.09;68.74
55044;BME280;54902;50.420;18.854;2023-03-01T01:01:21;102620.33;;;-3.09;68.74
55044;BME280;54902;50.420;18.854;2023-03-01T01:01:52;102622.12;;;-3.08;68.75
55044;BME280;54902;50.420;18.854;2023-03-01T01:02:23;102629.26;;;-3.09;68.76
55044;BME280;54902;50.420;18.854;2023-03-01T01:02:54;102624.79;;;-3.08;68.75
55044;BME280;54902;50.420;18.854;2023-03-01T01:03:25;102620.33;;;-3.09;68.76
55044;BME280;54902;50.420;18.854;2023-03-01T01:03:59;102617.66;;;-3.09;68.76
55044;BME280;54902;50.420;18.854;2023-03-01T01:04:30;102606.09;;;-3.19;68.75
55044;BME280;54902;50.420;18.854;2023-03-01T01:05:01;102618.58;;;-3.10;68.75
55044;BME280;54902;50.420;18.854;2023-03-01T01:05:34;102627.48;;;-3.10;68.77
55044;BME280;54902;50.420;18.854;2023-03-01T01:06:05;102631.02;;;-3.09;68.77
55044;BME280;54902;50.420;18.854;2023-03-01T01:06:42;102623.92;;;-3.10;68.77
55044;BME280;54902;50.420;18.854;2023-03-01T01:07:14;102627.48;;;-3.10;68.78
55044;BME280;54902;50.420;18.854;2023-03-01T01:07:45;102631.02;;;-3.11;68.78
55044;BME280;54902;50.420;18.854;2023-03-01T01:08:16;102616.80;;;-3.11;68.80
55044;BME280;54902;50.420;18.854;2023-03-01T01:08:48;102629.26;;;-3.12;68.81
55044;BME280;54902;50.420;18.854;2023-03-01T01:09:19;102620.35;;;-3.12;68.82
55044;BME280;54902;50.420;18.854;2023-03-01T01:09:50;102623.01;;;-3.12;68.82
55044;BME280;54902;50.420;18.854;2023-03-01T01:10:21;102619.47;;;-3.14;68.81
55044;BME280;54902;50.420;18.854;2023-03-01T01:10:51;102621.23;;;-3.13;68.81
55044;BME280;54902;50.420;18.854;2023-03-01T01:11:24;102623.02;;;-3.14;68.83
55044;BME280;54902;50.420;18.854;2023-03-01T01:11:55;102617.67;;;-3.14;68.82
55044;BME280;54902;50.420;18.854;2023-03-01T01:12:26;102618.55;;;-3.13;68.82
55044;BME280;54902;50.420;18.854;2023-03-01T01:12:57;102619.47;;;-3.14;68.80
55044;BME280;54902;50.420;18.854;2023-03-01T01:13:28;102621.23;;;-3.16;68.80
55044;BME280;54902;50.420;18.854;2023-03-01T01:13:59;102623.91;;;-3.16;68.80
55044;BME280;54902;50.420;18.854;2023-03-01T01:14:30;102626.58;;;-3.16;68.81
55044;BME280;54902;50.420;18.854;2023-03-01T01:15:01;102623.91;;;-3.16;68.80
55044;BME280;54902;50.420;18.854;2023-03-01T01:15:35;102621.23;;;-3.18;68.78
55044;BME280;54902;50.420;18.854;2023-03-01T01:16:06;102625.70;;;-3.18;68.79
55044;BME280;54902;50.420;18.854;2023-03-01T01:16:37;102627.45;;;-3.17;68.78
55044;BME280;54902;50.420;18.854;2023-03-01T01:17:08;102618.57;;;-3.19;68.78
55044;BME280;54902;50.420;18.854;2023-03-01T01:17:40;102616.77;;;-3.20;68.78
55044;BME280;54902;50.420;18.854;2023-03-01T01:18:11;102623.00;;;-3.20;68.80
55044;BME280;54902;50.420;18.854;2023-03-01T01:18:42;102614.99;;;-3.21;68.79
55044;BME280;54902;50.420;18.854;2023-03-01T01:19:14;102621.25;;;-3.21;68.78
55044;BME280;54902;50.420;18.854;2023-03-01T01:19:45;102613.23;;;-3.22;68.80
55044;BME280;54902;50.420;18.854;2023-03-01T01:20:16;102608.77;;;-3.23;68.81
55044;BME280;54902;50.420;18.854;2023-03-01T01:20:48;102613.23;;;-3.22;68.80
55044;BME280;54902;50.420;18.854;2023-03-01T01:21:21;102611.44;;;-3.23;68.81
55044;BME280;54902;50.420;18.854;2023-03-01T01:21:53;102614.11;;;-3.23;68.81
55044;BME280;54902;50.420;18.854;2023-03-01T01:22:23;102609.67;;;-3.27;68.77
55044;BME280;54902;50.420;18.854;2023-03-01T01:22:55;102608.77;;;-3.25;68.82
55044;BME280;54902;50.420;18.854;2023-03-01T01:23:26;102615.87;;;-3.25;68.84
55044;BME280;54902;50.420;18.854;2023-03-01T01:23:57;102611.45;;;-3.25;68.84
55044;BME280;54902;50.420;18.854;2023-03-01T01:24:29;102613.20;;;-3.25;68.83
55044;BME280;54902;50.420;18.854;2023-03-01T01:25:00;102606.10;;;-3.26;68.84
55044;BME280;54902;50.420;18.854;2023-03-01T01:25:34;102612.33;;;-3.26;68.86
55044;BME280;54902;50.420;18.854;2023-03-01T01:26:07;102611.45;;;-3.26;68.84
55044;BME280;54902;50.420;18.854;2023-03-01T01:26:38;102603.43;;;-3.26;68.84
55044;BME280;54902;50.420;18.854;2023-03-01T01:27:09;102606.10;;;-3.26;68.83
55044;BME280;54902;50.420;18.854;2023-03-01T01:27:40;102604.31;;;-3.27;68.83
55044;BME280;54902;50.420;18.854;2023-03-01T01:28:11;102609.67;;;-3.27;68.82
55044;BME280;54902;50.420;18.854;2023-03-01T01:28:42;102603.41;;;-3.28;68.83
55044;BME280;54902;50.420;18.854;2023-03-01T01:29:13;102614.09;;;-3.28;68.83
55044;BME280;54902;50.420;18.854;2023-03-01T01:29:44;102608.74;;;-3.28;68.83
55044;BME280;54902;50.420;18.854;2023-03-01T01:30:16;102602.52;;;-3.28;68.84
55044;BME280;54902;50.420;18.854;2023-03-01T01:30:47;102602.52;;;-3.28;68.82
55044;BME280;54902;50.420;18.854;2023-03-01T01:31:18;102587.38;;;-3.29;68.83
55044;BME280;54902;50.420;18.854;2023-03-01T01:31:49;102596.30;;;-3.29;68.84
55044;BME280;54902;50.420;18.854;2023-03-01T01:32:20;102597.18;;;-3.28;68.83
55044;BME280;54902;50.420;18.854;2023-03-01T01:32:51;102599.85;;;-3.28;68.84
55044;BME280;54902;50.420;18.854;2023-03-01T01:33:21;102606.08;;;-3.29;68.82
55044;BME280;54902;50.420;18.854;2023-03-01T01:33:53;102601.65;;;-3.29;68.83
55044;BME280;54902;50.420;18.854;2023-03-01T01:34:24;102594.52;;;-3.30;68.81
55044;BME280;54902;50.420;18.854;2023-03-01T01:34:55;102598.06;;;-3.29;68.83
55044;BME280;54902;50.420;18.854;2023-03-01T01:35:27;102590.04;;;-3.29;68.81
55044;BME280;54902;50.420;18.854;2023-03-01T01:35:58;102590.04;;;-3.29;68.82
55044;BME280;54902;50.420;18.854;2023-03-01T01:36:29;102590.04;;;-3.29;68.83
55044;BME280;54902;50.420;18.854;2023-03-01T01:37:00;102596.27;;;-3.30;68.83
55044;BME280;54902;50.420;18.854;2023-03-01T01:37:33;102593.62;;;-3.30;68.83
55044;BME280;54902;50.420;18.854;2023-03-01T01:38:07;102583.84;;;-3.31;68.86
55044;BME280;54902;50.420;18.854;2023-03-01T01:38:38;102591.84;;;-3.30;68.84
55044;BME280;54902;50.420;18.854;2023-03-01T01:39:10;102581.16;;;-3.31;68.86
55044;BME280;54902;50.420;18.854;2023-03-01T01:39:44;102583.84;;;-3.31;68.88
55044;BME280;54902;50.420;18.854;2023-03-01T01:40:15;102586.51;;;-3.31;68.87
55044;BME280;54902;50.420;18.854;2023-03-01T01:40:47;102587.38;;;-3.31;68.86
55044;BME280;54902;50.420;18.854;2023-03-01T01:41:19;102587.38;;;-3.32;68.85
55044;BME280;54902;50.420;18.854;2023-03-01T01:41:51;102590.93;;;-3.32;68.87
55044;BME280;54902;50.420;18.854;2023-03-01T01:42:21;102588.27;;;-3.33;68.87
55044;BME280;54902;50.420;18.854;2023-03-01T01:42:52;102582.94;;;-3.33;68.87
55044;BME280;54902;50.420;18.854;2023-03-01T01:43:29;102590.06;;;-3.32;68.85
55044;BME280;54902;50.420;18.854;2023-03-01T01:44:47;102587.39;;;-3.34;68.86
55044;BME280;54902;50.420;18.854;2023-03-01T01:45:28;102584.72;;;-3.34;68.87
55044;BME280;54902;50.420;18.854;2023-03-01T01:47:26;102576.71;;;-3.35;68.89
55044;BME280;54902;50.420;18.854;2023-03-01T01:48:03;102578.47;;;-3.36;68.91
55044;BME280;54902;50.420;18.854;2023-03-01T01:48:47;102574.93;;;-3.36;68.90
55044;BME280;54902;50.420;18.854;2023-03-01T01:49:27;102567.79;;;-3.37;68.90
55044;BME280;54902;50.420;18.854;2023-03-01T01:49:59;102574.93;;;-3.38;68.92
55044;BME280;54902;50.420;18.854;2023-03-01T01:50:30;102569.59;;;-3.38;68.92
55044;BME280;54902;50.420;18.854;2023-03-01T01:51:57;102569.59;;;-3.39;68.90
55044;BME280;54902;50.420;18.854;2023-03-01T01:52:35;102574.93;;;-3.39;68.90
55044;BME280;54902;50.420;18.854;2023-03-01T01:53:10;102570.47;;;-3.40;68.89
55044;BME280;54902;50.420;18.854;2023-03-01T01:53:44;102571.35;;;-3.41;68.90
55044;BME280;54902;50.420;18.854;2023-03-01T01:54:34;102569.59;;;-3.41;68.90
55044;BME280;54902;50.420;18.854;2023-03-01T01:55:09;102566.00;;;-3.41;68.90
55044;BME280;54902;50.420;18.854;2023-03-01T01:55:46;102572.23;;;-3.42;68.91
55044;BME280;54902;50.420;18.854;2023-03-01T01:56:18;102566.89;;;-3.42;68.91
55044;BME280;54902;50.420;18.854;2023-03-01T01:56:55;102573.14;;;-3.43;68.90
55044;BME280;54902;50.420;18.854;2023-03-01T01:57:36;102568.69;;;-3.44;68.73
55044;BME280;54902;50.420;18.854;2023-03-01T01:58:10;102563.34;;;-3.44;68.92
55044;BME280;54902;50.420;18.854;2023-03-01T01:58:43;102568.69;;;-3.44;68.93
55044;BME280;54902;50.420;18.854;2023-03-01T01:59:15;102566.02;;;-3.46;68.92
55044;BME280;54902;50.420;18.854;2023-03-01T01:59:50;102570.45;;;-3.46;68.93
55044;BME280;54902;50.420;18.854;2023-03-01T02:00:27;102567.79;;;-3.46;68.93
55044;BME280;54902;50.420;18.854;2023-03-01T02:00:58;102565.10;;;-3.46;68.95
55044;BME280;54902;50.420;18.854;2023-03-01T02:01:32;102571.36;;;-3.47;68.96
55044;BME280;54902;50.420;18.854;2023-03-01T02:02:04;102566.91;;;-3.48;68.97
55044;BME280;54902;50.420;18.854;2023-03-01T02:02:36;102570.45;;;-3.47;68.97
55044;BME280;54902;50.420;18.854;2023-03-01T02:03:12;102568.69;;;-3.47;68.99
55044;BME280;54902;50.420;18.854;2023-03-01T02:03:48;102577.58;;;-3.48;69.00
55044;BME280;54902;50.420;18.854;2023-03-01T02:04:20;102572.24;;;-3.48;69.01
55044;BME280;54902;50.420;18.854;2023-03-01T02:05:00;102568.69;;;-3.47;69.00
55044;BME280;54902;50.420;18.854;2023-03-01T02:05:43;102566.91;;;-3.48;69.00
55044;BME280;54902;50.420;18.854;2023-03-01T02:06:28;102548.20;;;-3.57;69.00
55044;BME280;54902;50.420;18.854;2023-03-01T02:07:05;102565.11;;;-3.47;69.00
55044;BME280;54902;50.420;18.854;2023-03-01T02:07:39;102565.11;;;-3.47;68.95
55044;BME280;54902;50.420;18.854;2023-03-01T02:08:12;102564.23;;;-3.49;69.00
55044;BME280;54902;50.420;18.854;2023-03-01T02:08:45;102567.79;;;-3.49;68.99
55044;BME280;54902;50.420;18.854;2023-03-01T02:09:19;102556.23;;;-3.48;69.00
55044;BME280;54902;50.420;18.854;2023-03-01T02:09:52;102562.44;;;-3.47;68.98
55044;BME280;54902;50.420;18.854;2023-03-01T02:10:24;102563.32;;;-3.48;68.97
55044;BME280;54902;50.420;18.854;2023-03-01T02:10:57;102557.10;;;-3.49;68.97
55044;BME280;54902;50.420;18.854;2023-03-01T02:11:31;102566.91;;;-3.48;68.97
55044;BME280;54902;50.420;18.854;2023-03-01T02:12:04;102557.98;;;-3.48;68.98
55044;BME280;54902;50.420;18.854;2023-03-01T02:12:35;102565.99;;;-3.48;68.97
55044;BME280;54902;50.420;18.854;2023-03-01T02:13:08;102557.98;;;-3.50;68.98
55044;BME280;54902;50.420;18.854;2023-03-01T02:13:40;102562.44;;;-3.49;68.98
55044;BME280;54902;50.420;18.854;2023-03-01T02:14:11;102564.23;;;-3.49;68.98
55044;BME280;54902;50.420;18.854;2023-03-01T02:14:42;102557.98;;;-3.50;68.96
55044;BME280;54902;50.420;18.854;2023-03-01T02:15:13;102565.11;;;-3.49;68.97
55044;BME280;54902;50.420;18.854;2023-03-01T02:15:44;102557.98;;;-3.50;68.97
55044;BME280;54902;50.420;18.854;2023-03-01T02:16:16;102561.57;;;-3.49;68.97
55044;BME280;54902;50.420;18.854;2023-03-01T02:16:47;102558.89;;;-3.49;68.98
55044;BME280;54902;50.420;18.854;2023-03-01T02:17:19;102559.78;;;-3.50;68.96
55044;BME280;54902;50.420;18.854;2023-03-01T02:17:52;102566.91;;;-3.51;68.97
55044;BME280;54902;50.420;18.854;2023-03-01T02:18:25;102563.33;;;-3.51;68.96
55044;BME280;54902;50.420;18.854;2023-03-01T02:18:57;102572.22;;;-3.54;68.98
55044;BME280;54902;50.420;18.854;2023-03-01T02:19:42;102561.57;;;-3.51;68.98
55044;BME280;54902;50.420;18.854;2023-03-01T02:20:23;102566.00;;;-3.51;68.97
55044;BME280;54902;50.420;18.854;2023-03-01T02:22:27;102569.55;;;-3.54;68.98
55044;BME280;54902;50.420;18.854;2023-03-01T02:23:00;102574.01;;;-3.53;68.98
55044;BME280;54902;50.420;18.854;2023-03-01T02:23:32;102572.22;;;-3.54;68.99
55044;BME280;54902;50.420;18.854;2023-03-01T02:24:17;102572.22;;;-3.54;68.97
55044;BME280;54902;50.420;18.854;2023-03-01T02:26:21;102585.57;;;-3.55;69.00
55044;BME280;54902;50.420;18.854;2023-03-01T02:26:55;102581.16;;;-3.55;69.01
55044;BME280;54902;50.420;18.854;2023-03-01T02:28:20;102587.37;;;-3.57;69.21
55044;BME280;54902;50.420;18.854;2023-03-01T02:28:51;102583.79;;;-3.58;69.27
55044;BME280;54902;50.420;18.854;2023-03-01T02:29:23;102579.32;;;-3.59;69.27
55044;BME280;54902;50.420;18.854;2023-03-01T02:29:54;102578.45;;;-3.59;69.28
55044;BME280;54902;50.420;18.854;2023-03-01T02:30:25;102582.91;;;-3.60;69.29
55044;BME280;54902;50.420;18.854;2023-03-01T02:30:57;102577.58;;;-3.60;69.29
55044;BME280;54902;50.420;18.854;2023-03-01T02:31:40;102576.65;;;-3.60;69.30
55044;BME280;54902;50.420;18.854;2023-03-01T02:32:16;102578.45;;;-3.61;69.29
55044;BME280;54902;50.420;18.854;2023-03-01T02:32:56;102576.65;;;-3.62;69.28
55044;BME280;54902;50.420;18.854;2023-03-01T02:33:35;102584.67;;;-3.62;69.26
55044;BME280;54902;50.420;18.854;2023-03-01T02:34:09;102572.20;;;-3.63;69.28
55044;BME280;54902;50.420;18.854;2023-03-01T02:34:41;102582.88;;;-3.63;69.27
55044;BME280;54902;50.420;18.854;2023-03-01T02:35:16;102569.52;;;-3.63;69.25
55044;BME280;54902;50.420;18.854;2023-03-01T02:35:48;102577.54;;;-3.63;69.26
55044;BME280;54902;50.420;18.854;2023-03-01T02:36:23;102572.20;;;-3.63;69.26
55044;BME280;54902;50.420;18.854;2023-03-01T02:37:35;102575.78;;;-3.64;69.24
55044;BME280;54902;50.420;18.854;2023-03-01T02:38:08;102570.45;;;-3.64;69.24
55044;BME280;54902;50.420;18.854;2023-03-01T02:38:41;102581.13;;;-3.64;69.22
55044;BME280;54902;50.420;18.854;2023-03-01T02:39:18;102570.45;;;-3.64;69.23
55044;BME280;54902;50.420;18.854;2023-03-01T02:39:59;102571.33;;;-3.63;69.24
55044;BME280;54902;50.420;18.854;2023-03-01T02:40:34;102572.20;;;-3.63;69.23
55044;BME280;54902;50.420;18.854;2023-03-01T02:41:07;102569.53;;;-3.64;69.23
55044;BME280;54902;50.420;18.854;2023-03-01T02:41:43;102574.87;;;-3.63;69.23
55044;BME280;54902;50.420;18.854;2023-03-01T02:42:21;102575.78;;;-3.62;69.23
55044;BME280;54902;50.420;18.854;2023-03-01T02:42:56;102577.54;;;-3.63;69.23
55044;BME280;54902;50.420;18.854;2023-03-01T02:43:31;102574.87;;;-3.63;69.24
55044;BME280;54902;50.420;18.854;2023-03-01T02:44:03;102582.88;;;-3.63;69.24
55044;BME280;54902;50.420;18.854;2023-03-01T02:44:35;102577.54;;;-3.63;69.23
55044;BME280;54902;50.420;18.854;2023-03-01T02:45:06;102572.20;;;-3.63;69.22
55044;BME280;54902;50.420;18.854;2023-03-01T02:45:37;102577.54;;;-3.63;69.22
55044;BME280;54902;50.420;18.854;2023-03-01T02:46:20;102577.54;;;-3.63;69.22
55044;BME280;54902;50.420;18.854;2023-03-01T02:46:56;102584.67;;;-3.62;69.22
55044;BME280;54902;50.420;18.854;2023-03-01T02:47:28;102581.13;;;-3.62;69.22
55044;BME280;54902;50.420;18.854;2023-03-01T02:47:59;102585.55;;;-3.63;69.22
55044;BME280;54902;50.420;18.854;2023-03-01T02:49:22;102577.54;;;-3.63;69.21
55044;BME280;54902;50.420;18.854;2023-03-01T02:49:54;102586.46;;;-3.62;69.20
55044;BME280;54902;50.420;18.854;2023-03-01T02:52:43;102583.79;;;-3.62;69.18
55044;BME280;54902;50.420;18.854;2023-03-01T02:54:21;102583.79;;;-3.64;69.18
55044;BME280;54902;50.420;18.854;2023-03-01T02:54:48;102577.54;;;-3.64;69.16
55044;BME280;54902;50.420;18.854;2023-03-01T02:55:22;102577.54;;;-3.66;69.17
55044;BME280;54902;50.420;18.854;2023-03-01T02:55:53;102574.87;;;-3.64;69.17
55044;BME280;54902;50.420;18.854;2023-03-01T02:56:25;102567.75;;;-3.67;69.15
55044;BME280;54902;50.420;18.854;2023-03-01T02:56:56;102566.86;;;-3.66;69.16
55044;BME280;54902;50.420;18.854;2023-03-01T02:57:30;102585.55;;;-3.66;69.15
55044;BME280;54902;50.420;18.854;2023-03-01T02:58:03;102573.98;;;-3.66;69.16
55044;BME280;54902;50.420;18.854;2023-03-01T02:58:33;102581.09;;;-3.67;69.16
55044;BME280;54902;50.420;18.854;2023-03-01T02:59:18;102579.34;;;-3.68;69.17
55044;BME280;54902;50.420;18.854;2023-03-01T02:59:51;102587.34;;;-3.68;69.16
55044;BME280;54902;50.420;18.854;2023-03-01T03:00:28;102577.54;;;-3.67;69.16